sensor_id;sensor_type;location;lat;lon;timestamp;P1;durP1;ratioP1;P2;durP2;ratioP2
17380;SDS011;8808;52.478;13.378;2023-07-30T00:00:50;7.60;;;4.10;;
17380;SDS011;8808;52.478;13.378;2023-07-30T00:03:17;7.00;;;4.10;;
17380;SDS011;8808;52.478;13.378;2023-07-30T00:05:51;6.47;;;4.10;;
17380;SDS011;8808;52.478;13.378;2023-07-30T00:08:18;10.80;;;4.33;;
17380;SDS011;8808;52.478;13.378;2023-07-30T00:10:46;6.43;;;4.07;;
17380;SDS011;8808;52.478;13.378;2023-07-30T00:13:13;9.33;;;5.03;;
17380;SDS011;8808;52.478;13.378;2023-07-30T00:15:40;6.70;;;4.17;;
17380;SDS011;8808;52.478;13.378;2023-07-30T00:18:07;8.73;;;3.93;;
17380;SDS011;8808;52.478;13.378;2023-07-30T00:20:34;6.67;;;4.37;;
17380;SDS011;8808;52.478;13.378;2023-07-30T00:23:02;6.50;;;3.90;;
17380;SDS011;8808;52.478;13.378;2023-07-30T00:25:29;5.57;;;3.57;;
17380;SDS011;8808;52.478;13.378;2023-07-30T00:27:57;7.20;;;4.33;;
17380;SDS011;8808;52.478;13.378;2023-07-30T00:30:25;6.10;;;4.00;;
17380;SDS011;8808;52.478;13.378;2023-07-30T00:32:52;6.23;;;4.20;;
17380;SDS011;8808;52.478;13.378;2023-07-30T00:35:19;8.63;;;4.50;;
17380;SDS011;8808;52.478;13.378;2023-07-30T00:37:47;5.60;;;3.70;;
17380;SDS011;8808;52.478;13.378;2023-07-30T00:40:14;5.87;;;3.93;;
17380;SDS011;8808;52.478;13.378;2023-07-30T00:42:41;7.60;;;4.07;;
17380;SDS011;8808;52.478;13.378;2023-07-30T00:45:10;6.00;;;3.97;;
17380;SDS011;8808;52.478;13.378;2023-07-30T00:47:37;4.67;;;3.33;;
17380;SDS011;8808;52.478;13.378;2023-07-30T00:50:05;8.87;;;4.00;;
17380;SDS011;8808;52.478;13.378;2023-07-30T00:52:33;5.80;;;3.87;;
17380;SDS011;8808;52.478;13.378;2023-07-30T00:55:01;5.37;;;3.80;;
17380;SDS011;8808;52.478;13.378;2023-07-30T00:57:29;6.70;;;3.77;;
17380;SDS011;8808;52.478;13.378;2023-07-30T00:59:56;8.37;;;4.10;;
17380;SDS011;8808;52.478;13.378;2023-07-30T01:02:38;6.23;;;3.80;;
17380;SDS011;8808;52.478;13.378;2023-07-30T01:05:05;5.80;;;3.80;;
17380;SDS011;8808;52.478;13.378;2023-07-30T01:07:33;6.10;;;3.93;;
17380;SDS011;8808;52.478;13.378;2023-07-30T01:09:59;5.30;;;3.67;;
17380;SDS011;8808;52.478;13.378;2023-07-30T01:12:28;6.00;;;3.53;;
17380;SDS011;8808;52.478;13.378;2023-07-30T01:14:56;6.17;;;3.70;;
17380;SDS011;8808;52.478;13.378;2023-07-30T01:17:24;5.73;;;3.87;;
17380;SDS011;8808;52.478;13.378;2023-07-30T01:19:53;5.37;;;3.30;;
17380;SDS011;8808;52.478;13.378;2023-07-30T01:22:22;4.70;;;3.50;;
17380;SDS011;8808;52.478;13.378;2023-07-30T01:24:49;9.20;;;4.10;;
17380;SDS011;8808;52.478;13.378;2023-07-30T01:27:19;7.80;;;3.60;;
17380;SDS011;8808;52.478;13.378;2023-07-30T01:29:52;4.77;;;3.60;;
17380;SDS011;8808;52.478;13.378;2023-07-30T01:32:24;5.50;;;3.60;;
17380;SDS011;8808;52.478;13.378;2023-07-30T01:34:52;7.07;;;3.87;;
17380;SDS011;8808;52.478;13.378;2023-07-30T01:37:22;8.27;;;3.87;;
17380;SDS011;8808;52.478;13.378;2023-07-30T01:39:49;5.23;;;3.67;;
17380;SDS011;8808;52.478;13.378;2023-07-30T01:42:17;7.73;;;3.90;;
17380;SDS011;8808;52.478;13.378;2023-07-30T01:44:44;5.90;;;3.70;;
17380;SDS011;8808;52.478;13.378;2023-07-30T01:47:11;7.73;;;4.00;;
17380;SDS011;8808;52.478;13.378;2023-07-30T01:49:37;6.40;;;3.50;;
17380;SDS011;8808;52.478;13.378;2023-07-30T01:52:05;6.97;;;3.63;;
17380;SDS011;8808;52.478;13.378;2023-07-30T01:54:33;6.57;;;3.90;;
17380;SDS011;8808;52.478;13.378;2023-07-30T01:57:00;5.93;;;3.67;;
17380;SDS011;8808;52.478;13.378;2023-07-30T01:59:27;5.77;;;3.80;;
17380;SDS011;8808;52.478;13.378;2023-07-30T02:01:54;5.43;;;3.60;;
17380;SDS011;8808;52.478;13.378;2023-07-30T02:04:21;7.67;;;3.90;;
17380;SDS011;8808;52.478;13.378;2023-07-30T02:06:48;10.53;;;4.43;;
17380;SDS011;8808;52.478;13.378;2023-07-30T02:09:15;6.73;;;4.20;;
17380;SDS011;8808;52.478;13.378;2023-07-30T02:11:43;6.37;;;3.53;;
17380;SDS011;8808;52.478;13.378;2023-07-30T02:14:10;8.17;;;4.23;;
17380;SDS011;8808;52.478;13.378;2023-07-30T02:16:37;6.23;;;3.70;;
17380;SDS011;8808;52.478;13.378;2023-07-30T02:19:04;6.33;;;3.70;;
17380;SDS011;8808;52.478;13.378;2023-07-30T02:21:31;9.47;;;4.03;;
17380;SDS011;8808;52.478;13.378;2023-07-30T02:24:01;5.50;;;3.63;;
17380;SDS011;8808;52.478;13.378;2023-07-30T02:26:28;7.67;;;4.07;;
17380;SDS011;8808;52.478;13.378;2023-07-30T02:28:56;8.30;;;4.30;;
17380;SDS011;8808;52.478;13.378;2023-07-30T02:31:25;6.20;;;3.63;;
17380;SDS011;8808;52.478;13.378;2023-07-30T02:33:52;6.20;;;3.97;;
17380;SDS011;8808;52.478;13.378;2023-07-30T02:36:19;7.33;;;4.20;;
17380;SDS011;8808;52.478;13.378;2023-07-30T02:38:46;6.67;;;4.20;;
17380;SDS011;8808;52.478;13.378;2023-07-30T02:41:12;9.47;;;4.57;;
17380;SDS011;8808;52.478;13.378;2023-07-30T02:43:39;8.47;;;4.20;;
17380;SDS011;8808;52.478;13.378;2023-07-30T02:46:07;7.57;;;4.17;;
17380;SDS011;8808;52.478;13.378;2023-07-30T02:48:34;7.77;;;4.80;;
17380;SDS011;8808;52.478;13.378;2023-07-30T02:51:01;13.90;;;8.40;;
17380;SDS011;8808;52.478;13.378;2023-07-30T02:53:28;22.57;;;10.37;;
17380;SDS011;8808;52.478;13.378;2023-07-30T02:55:55;15.20;;;7.63;;
17380;SDS011;8808;52.478;13.378;2023-07-30T02:58:22;8.00;;;4.63;;
17380;SDS011;8808;52.478;13.378;2023-07-30T03:00:49;9.87;;;4.57;;
17380;SDS011;8808;52.478;13.378;2023-07-30T03:03:17;7.47;;;4.53;;
17380;SDS011;8808;52.478;13.378;2023-07-30T03:05:51;6.23;;;4.60;;
17380;SDS011;8808;52.478;13.378;2023-07-30T03:08:18;7.50;;;4.80;;
17380;SDS011;8808;52.478;13.378;2023-07-30T03:10:45;8.13;;;4.43;;
17380;SDS011;8808;52.478;13.378;2023-07-30T03:13:12;8.90;;;4.57;;
17380;SDS011;8808;52.478;13.378;2023-07-30T03:15:39;10.50;;;4.50;;
17380;SDS011;8808;52.478;13.378;2023-07-30T03:18:06;6.63;;;4.47;;
17380;SDS011;8808;52.478;13.378;2023-07-30T03:20:34;6.63;;;4.23;;
17380;SDS011;8808;52.478;13.378;2023-07-30T03:23:01;7.43;;;3.93;;
17380;SDS011;8808;52.478;13.378;2023-07-30T03:25:28;5.10;;;4.10;;
17380;SDS011;8808;52.478;13.378;2023-07-30T03:27:55;10.63;;;5.30;;
17380;SDS011;8808;52.478;13.378;2023-07-30T03:30:22;7.57;;;4.77;;
17380;SDS011;8808;52.478;13.378;2023-07-30T03:32:49;5.63;;;4.03;;
17380;SDS011;8808;52.478;13.378;2023-07-30T03:35:16;8.47;;;4.13;;
17380;SDS011;8808;52.478;13.378;2023-07-30T03:37:44;8.20;;;5.10;;
17380;SDS011;8808;52.478;13.378;2023-07-30T03:40:11;9.43;;;5.00;;
17380;SDS011;8808;52.478;13.378;2023-07-30T03:42:38;9.23;;;4.60;;
17380;SDS011;8808;52.478;13.378;2023-07-30T03:45:05;10.63;;;5.40;;
17380;SDS011;8808;52.478;13.378;2023-07-30T03:47:33;9.53;;;5.63;;
17380;SDS011;8808;52.478;13.378;2023-07-30T03:49:59;9.33;;;5.70;;
17380;SDS011;8808;52.478;13.378;2023-07-30T03:52:26;7.57;;;5.37;;
17380;SDS011;8808;52.478;13.378;2023-07-30T03:54:54;7.17;;;5.23;;
17380;SDS011;8808;52.478;13.378;2023-07-30T03:57:21;6.97;;;5.07;;
17380;SDS011;8808;52.478;13.378;2023-07-30T03:59:48;9.83;;;5.83;;
17380;SDS011;8808;52.478;13.378;2023-07-30T04:02:15;10.17;;;5.33;;
17380;SDS011;8808;52.478;13.378;2023-07-30T04:04:43;9.80;;;5.93;;
17380;SDS011;8808;52.478;13.378;2023-07-30T04:07:11;8.10;;;5.37;;
17380;SDS011;8808;52.478;13.378;2023-07-30T04:09:38;8.80;;;5.57;;
17380;SDS011;8808;52.478;13.378;2023-07-30T04:12:06;8.83;;;5.60;;
17380;SDS011;8808;52.478;13.378;2023-07-30T04:14:34;10.47;;;6.40;;
17380;SDS011;8808;52.478;13.378;2023-07-30T04:17:01;9.90;;;6.20;;
17380;SDS011;8808;52.478;13.378;2023-07-30T04:19:28;10.63;;;6.50;;
17380;SDS011;8808;52.478;13.378;2023-07-30T04:21:55;12.80;;;6.63;;
17380;SDS011;8808;52.478;13.378;2023-07-30T04:24:22;9.13;;;6.03;;
17380;SDS011;8808;52.478;13.378;2023-07-30T04:26:51;10.03;;;5.93;;
17380;SDS011;8808;52.478;13.378;2023-07-30T04:29:19;7.93;;;6.17;;
17380;SDS011;8808;52.478;13.378;2023-07-30T04:31:46;8.97;;;6.00;;
17380;SDS011;8808;52.478;13.378;2023-07-30T04:34:13;11.83;;;6.47;;
17380;SDS011;8808;52.478;13.378;2023-07-30T04:36:40;11.17;;;6.17;;
17380;SDS011;8808;52.478;13.378;2023-07-30T04:39:07;12.63;;;5.83;;
17380;SDS011;8808;52.478;13.378;2023-07-30T04:41:34;11.63;;;6.13;;
17380;SDS011;8808;52.478;13.378;2023-07-30T04:44:00;12.77;;;6.00;;
17380;SDS011;8808;52.478;13.378;2023-07-30T04:46:29;11.93;;;6.90;;
17380;SDS011;8808;52.478;13.378;2023-07-30T04:48:57;9.17;;;6.20;;
17380;SDS011;8808;52.478;13.378;2023-07-30T04:51:24;11.03;;;5.90;;
17380;SDS011;8808;52.478;13.378;2023-07-30T04:53:51;11.50;;;6.37;;
17380;SDS011;8808;52.478;13.378;2023-07-30T04:56:18;8.73;;;6.40;;
17380;SDS011;8808;52.478;13.378;2023-07-30T04:58:45;10.13;;;6.43;;
17380;SDS011;8808;52.478;13.378;2023-07-30T05:01:12;10.47;;;6.20;;
17380;SDS011;8808;52.478;13.378;2023-07-30T05:03:40;8.87;;;6.13;;
17380;SDS011;8808;52.478;13.378;2023-07-30T05:06:07;8.90;;;6.20;;
17380;SDS011;8808;52.478;13.378;2023-07-30T05:08:34;12.27;;;6.50;;
17380;SDS011;8808;52.478;13.378;2023-07-30T05:11:01;9.83;;;6.63;;
17380;SDS011;8808;52.478;13.378;2023-07-30T05:13:28;9.07;;;6.00;;
17380;SDS011;8808;52.478;13.378;2023-07-30T05:15:55;13.90;;;6.33;;
17380;SDS011;8808;52.478;13.378;2023-07-30T05:18:22;7.67;;;5.17;;
17380;SDS011;8808;52.478;13.378;2023-07-30T05:20:50;7.80;;;5.53;;
17380;SDS011;8808;52.478;13.378;2023-07-30T05:23:17;7.87;;;5.07;;
17380;SDS011;8808;52.478;13.378;2023-07-30T05:25:44;6.47;;;4.83;;
17380;SDS011;8808;52.478;13.378;2023-07-30T05:28:11;6.33;;;5.00;;
17380;SDS011;8808;52.478;13.378;2023-07-30T05:30:38;6.83;;;4.83;;
17380;SDS011;8808;52.478;13.378;2023-07-30T05:33:05;6.97;;;4.87;;
17380;SDS011;8808;52.478;13.378;2023-07-30T05:35:32;8.20;;;4.60;;
17380;SDS011;8808;52.478;13.378;2023-07-30T05:38:00;5.70;;;4.37;;
17380;SDS011;8808;52.478;13.378;2023-07-30T05:40:27;6.37;;;4.50;;
17380;SDS011;8808;52.478;13.378;2023-07-30T05:42:54;8.03;;;4.20;;
17380;SDS011;8808;52.478;13.378;2023-07-30T05:45:21;6.47;;;4.43;;
17380;SDS011;8808;52.478;13.378;2023-07-30T05:47:48;5.83;;;4.00;;
17380;SDS011;8808;52.478;13.378;2023-07-30T05:50:15;6.43;;;3.90;;
17380;SDS011;8808;52.478;13.378;2023-07-30T05:52:41;5.47;;;4.03;;
17380;SDS011;8808;52.478;13.378;2023-07-30T05:55:10;4.83;;;3.77;;
17380;SDS011;8808;52.478;13.378;2023-07-30T05:57:37;5.07;;;3.70;;
17380;SDS011;8808;52.478;13.378;2023-07-30T06:00:05;4.63;;;3.80;;
17380;SDS011;8808;52.478;13.378;2023-07-30T06:02:33;4.77;;;3.27;;
17380;SDS011;8808;52.478;13.378;2023-07-30T06:04:59;4.90;;;3.77;;
17380;SDS011;8808;52.478;13.378;2023-07-30T06:07:26;4.67;;;3.50;;
17380;SDS011;8808;52.478;13.378;2023-07-30T06:09:53;7.60;;;3.67;;
17380;SDS011;8808;52.478;13.378;2023-07-30T06:12:22;4.93;;;3.60;;
17380;SDS011;8808;52.478;13.378;2023-07-30T06:14:49;7.13;;;3.60;;
17380;SDS011;8808;52.478;13.378;2023-07-30T06:17:15;6.03;;;3.77;;
17380;SDS011;8808;52.478;13.378;2023-07-30T06:19:42;5.30;;;3.30;;
17380;SDS011;8808;52.478;13.378;2023-07-30T06:22:09;3.77;;;3.20;;
17380;SDS011;8808;52.478;13.378;2023-07-30T06:24:36;5.80;;;3.03;;
17380;SDS011;8808;52.478;13.378;2023-07-30T06:27:04;4.03;;;3.20;;
17380;SDS011;8808;52.478;13.378;2023-07-30T06:29:33;4.90;;;2.93;;
17380;SDS011;8808;52.478;13.378;2023-07-30T06:32:00;3.20;;;2.20;;
17380;SDS011;8808;52.478;13.378;2023-07-30T06:34:26;3.60;;;2.78;;
17380;SDS011;8808;52.478;13.378;2023-07-30T06:36:54;3.83;;;2.70;;
17380;SDS011;8808;52.478;13.378;2023-07-30T06:39:21;3.27;;;2.63;;
17380;SDS011;8808;52.478;13.378;2023-07-30T06:41:48;3.28;;;2.60;;
17380;SDS011;8808;52.478;13.378;2023-07-30T06:44:14;5.33;;;3.03;;
17380;SDS011;8808;52.478;13.378;2023-07-30T06:46:43;4.50;;;2.60;;
17380;SDS011;8808;52.478;13.378;2023-07-30T06:49:10;3.23;;;2.57;;
17380;SDS011;8808;52.478;13.378;2023-07-30T06:51:37;7.07;;;3.03;;
17380;SDS011;8808;52.478;13.378;2023-07-30T06:54:04;4.40;;;2.80;;
17380;SDS011;8808;52.478;13.378;2023-07-30T06:56:31;3.87;;;3.03;;
17380;SDS011;8808;52.478;13.378;2023-07-30T06:58:58;5.27;;;3.00;;
17380;SDS011;8808;52.478;13.378;2023-07-30T07:01:25;2.60;;;2.40;;
17380;SDS011;8808;52.478;13.378;2023-07-30T07:03:53;3.43;;;2.60;;
17380;SDS011;8808;52.478;13.378;2023-07-30T07:06:20;4.13;;;2.83;;
17380;SDS011;8808;52.478;13.378;2023-07-30T07:08:47;7.80;;;3.30;;
17380;SDS011;8808;52.478;13.378;2023-07-30T07:11:14;3.33;;;2.73;;
17380;SDS011;8808;52.478;13.378;2023-07-30T07:13:41;5.43;;;3.30;;
17380;SDS011;8808;52.478;13.378;2023-07-30T07:16:08;4.00;;;2.92;;
17380;SDS011;8808;52.478;13.378;2023-07-30T07:18:35;4.00;;;2.90;;
17380;SDS011;8808;52.478;13.378;2023-07-30T07:21:03;5.50;;;2.70;;
17380;SDS011;8808;52.478;13.378;2023-07-30T07:23:30;3.67;;;2.80;;
17380;SDS011;8808;52.478;13.378;2023-07-30T07:25:57;3.80;;;3.00;;
17380;SDS011;8808;52.478;13.378;2023-07-30T07:28:24;6.03;;;3.10;;
17380;SDS011;8808;52.478;13.378;2023-07-30T07:30:51;5.32;;;3.05;;
17380;SDS011;8808;52.478;13.378;2023-07-30T07:33:18;6.30;;;3.20;;
17380;SDS011;8808;52.478;13.378;2023-07-30T07:35:45;3.88;;;3.05;;
17380;SDS011;8808;52.478;13.378;2023-07-30T07:38:13;4.05;;;2.90;;
17380;SDS011;8808;52.478;13.378;2023-07-30T07:40:40;4.55;;;3.00;;
17380;SDS011;8808;52.478;13.378;2023-07-30T07:43:07;3.78;;;2.35;;
17380;SDS011;8808;52.478;13.378;2023-07-30T07:45:34;3.95;;;2.78;;
17380;SDS011;8808;52.478;13.378;2023-07-30T07:48:02;3.47;;;2.20;;
17380;SDS011;8808;52.478;13.378;2023-07-30T07:50:29;3.58;;;2.78;;
17380;SDS011;8808;52.478;13.378;2023-07-30T07:52:56;3.30;;;2.20;;
17380;SDS011;8808;52.478;13.378;2023-07-30T07:55:24;3.30;;;2.33;;
17380;SDS011;8808;52.478;13.378;2023-07-30T07:57:51;3.95;;;2.00;;
17380;SDS011;8808;52.478;13.378;2023-07-30T08:00:18;4.05;;;2.67;;
17380;SDS011;8808;52.478;13.378;2023-07-30T08:02:45;4.60;;;2.40;;
17380;SDS011;8808;52.478;13.378;2023-07-30T08:05:12;6.65;;;3.17;;
17380;SDS011;8808;52.478;13.378;2023-07-30T08:07:40;4.47;;;2.78;;
17380;SDS011;8808;52.478;13.378;2023-07-30T08:10:07;3.85;;;2.53;;
17380;SDS011;8808;52.478;13.378;2023-07-30T08:12:35;5.93;;;3.25;;
17380;SDS011;8808;52.478;13.378;2023-07-30T08:15:02;4.38;;;2.80;;
17380;SDS011;8808;52.478;13.378;2023-07-30T08:17:30;5.45;;;2.28;;
17380;SDS011;8808;52.478;13.378;2023-07-30T08:19:57;5.00;;;2.17;;
17380;SDS011;8808;52.478;13.378;2023-07-30T08:22:24;2.45;;;2.20;;
17380;SDS011;8808;52.478;13.378;2023-07-30T08:24:50;4.80;;;2.53;;
17380;SDS011;8808;52.478;13.378;2023-07-30T08:27:17;3.13;;;2.53;;
17380;SDS011;8808;52.478;13.378;2023-07-30T08:29:46;3.47;;;2.10;;
17380;SDS011;8808;52.478;13.378;2023-07-30T08:32:13;3.70;;;2.10;;
17380;SDS011;8808;52.478;13.378;2023-07-30T08:34:39;3.08;;;2.50;;
17380;SDS011;8808;52.478;13.378;2023-07-30T08:37:06;4.72;;;2.70;;
17380;SDS011;8808;52.478;13.378;2023-07-30T08:39:33;2.90;;;2.00;;
17380;SDS011;8808;52.478;13.378;2023-07-30T08:42:00;3.08;;;2.53;;
17380;SDS011;8808;52.478;13.378;2023-07-30T08:44:28;2.72;;;2.17;;
17380;SDS011;8808;52.478;13.378;2023-07-30T08:46:57;4.78;;;2.22;;
17380;SDS011;8808;52.478;13.378;2023-07-30T08:49:24;4.00;;;2.30;;
17380;SDS011;8808;52.478;13.378;2023-07-30T08:51:53;6.70;;;2.40;;
17380;SDS011;8808;52.478;13.378;2023-07-30T08:54:21;5.35;;;2.03;;
17380;SDS011;8808;52.478;13.378;2023-07-30T08:56:49;4.82;;;1.98;;
17380;SDS011;8808;52.478;13.378;2023-07-30T08:59:17;3.55;;;2.03;;
17380;SDS011;8808;52.478;13.378;2023-07-30T09:01:46;4.50;;;1.83;;
17380;SDS011;8808;52.478;13.378;2023-07-30T09:04:17;2.38;;;1.65;;
17380;SDS011;8808;52.478;13.378;2023-07-30T09:06:47;2.17;;;1.70;;
17380;SDS011;8808;52.478;13.378;2023-07-30T09:09:15;3.40;;;1.92;;
17380;SDS011;8808;52.478;13.378;2023-07-30T09:11:42;3.53;;;1.90;;
17380;SDS011;8808;52.478;13.378;2023-07-30T09:14:09;2.97;;;2.05;;
17380;SDS011;8808;52.478;13.378;2023-07-30T09:16:36;4.45;;;2.10;;
17380;SDS011;8808;52.478;13.378;2023-07-30T09:19:03;3.55;;;1.70;;
17380;SDS011;8808;52.478;13.378;2023-07-30T09:21:34;3.55;;;1.60;;
17380;SDS011;8808;52.478;13.378;2023-07-30T09:24:01;2.40;;;1.80;;
17380;SDS011;8808;52.478;13.378;2023-07-30T09:26:39;2.95;;;1.70;;
17380;SDS011;8808;52.478;13.378;2023-07-30T09:29:08;3.42;;;1.67;;
17380;SDS011;8808;52.478;13.378;2023-07-30T09:31:48;6.43;;;2.00;;
17380;SDS011;8808;52.478;13.378;2023-07-30T09:34:19;3.38;;;1.75;;
17380;SDS011;8808;52.478;13.378;2023-07-30T09:36:49;2.88;;;1.55;;
17380;SDS011;8808;52.478;13.378;2023-07-30T09:39:19;2.42;;;1.92;;
17380;SDS011;8808;52.478;13.378;2023-07-30T09:41:47;4.65;;;1.77;;
17380;SDS011;8808;52.478;13.378;2023-07-30T09:44:15;2.60;;;1.95;;
17380;SDS011;8808;52.478;13.378;2023-07-30T09:46:43;2.55;;;1.90;;
17380;SDS011;8808;52.478;13.378;2023-07-30T09:49:12;8.60;;;1.80;;
17380;SDS011;8808;52.478;13.378;2023-07-30T09:51:39;3.03;;;1.42;;
17380;SDS011;8808;52.478;13.378;2023-07-30T09:54:09;2.47;;;1.70;;
17380;SDS011;8808;52.478;13.378;2023-07-30T09:56:37;4.88;;;1.65;;
17380;SDS011;8808;52.478;13.378;2023-07-30T09:59:06;2.38;;;1.50;;
17380;SDS011;8808;52.478;13.378;2023-07-30T10:01:35;3.65;;;1.45;;
17380;SDS011;8808;52.478;13.378;2023-07-30T10:04:06;3.88;;;1.70;;
17380;SDS011;8808;52.478;13.378;2023-07-30T10:06:35;3.08;;;1.70;;
17380;SDS011;8808;52.478;13.378;2023-07-30T10:09:05;5.22;;;1.98;;
17380;SDS011;8808;52.478;13.378;2023-07-30T10:11:36;2.47;;;1.77;;
17380;SDS011;8808;52.478;13.378;2023-07-30T10:14:04;5.32;;;1.88;;
17380;SDS011;8808;52.478;13.378;2023-07-30T10:16:32;2.45;;;1.63;;
17380;SDS011;8808;52.478;13.378;2023-07-30T10:18:59;2.78;;;1.58;;
17380;SDS011;8808;52.478;13.378;2023-07-30T10:21:27;4.47;;;1.58;;
17380;SDS011;8808;52.478;13.378;2023-07-30T10:24:00;3.15;;;1.75;;
17380;SDS011;8808;52.478;13.378;2023-07-30T10:26:29;6.75;;;1.88;;
17380;SDS011;8808;52.478;13.378;2023-07-30T10:29:10;2.67;;;1.70;;
17380;SDS011;8808;52.478;13.378;2023-07-30T10:31:41;5.10;;;1.67;;
17380;SDS011;8808;52.478;13.378;2023-07-30T10:34:09;2.83;;;1.33;;
17380;SDS011;8808;52.478;13.378;2023-07-30T10:36:40;2.60;;;1.70;;
17380;SDS011;8808;52.478;13.378;2023-07-30T10:39:13;4.07;;;1.77;;
17380;SDS011;8808;52.478;13.378;2023-07-30T10:41:48;7.90;;;2.03;;
17380;SDS011;8808;52.478;13.378;2023-07-30T10:44:21;5.03;;;1.83;;
17380;SDS011;8808;52.478;13.378;2023-07-30T10:46:50;3.97;;;1.52;;
17380;SDS011;8808;52.478;13.378;2023-07-30T10:49:17;5.07;;;1.55;;
17380;SDS011;8808;52.478;13.378;2023-07-30T10:51:44;3.42;;;1.50;;
17380;SDS011;8808;52.478;13.378;2023-07-30T10:54:11;3.75;;;1.23;;
17380;SDS011;8808;52.478;13.378;2023-07-30T10:56:38;5.88;;;2.00;;
17380;SDS011;8808;52.478;13.378;2023-07-30T10:59:08;4.22;;;1.63;;
17380;SDS011;8808;52.478;13.378;2023-07-30T11:01:38;4.53;;;1.70;;
17380;SDS011;8808;52.478;13.378;2023-07-30T11:04:07;2.60;;;1.50;;
17380;SDS011;8808;52.478;13.378;2023-07-30T11:06:35;2.80;;;1.70;;
17380;SDS011;8808;52.478;13.378;2023-07-30T11:09:02;2.95;;;1.73;;
17380;SDS011;8808;52.478;13.378;2023-07-30T11:11:29;2.80;;;1.50;;
17380;SDS011;8808;52.478;13.378;2023-07-30T11:13:56;7.18;;;1.50;;
17380;SDS011;8808;52.478;13.378;2023-07-30T11:16:25;5.22;;;1.75;;
17380;SDS011;8808;52.478;13.378;2023-07-30T11:18:52;4.28;;;1.48;;
17380;SDS011;8808;52.478;13.378;2023-07-30T11:21:19;4.43;;;1.52;;
17380;SDS011;8808;52.478;13.378;2023-07-30T11:23:46;2.60;;;1.40;;
17380;SDS011;8808;52.478;13.378;2023-07-30T11:26:15;2.15;;;1.42;;
17380;SDS011;8808;52.478;13.378;2023-07-30T11:28:44;1.80;;;1.13;;
17380;SDS011;8808;52.478;13.378;2023-07-30T11:31:12;2.10;;;1.30;;
17380;SDS011;8808;52.478;13.378;2023-07-30T11:33:41;4.80;;;1.73;;
17380;SDS011;8808;52.478;13.378;2023-07-30T11:36:10;2.70;;;1.60;;
17380;SDS011;8808;52.478;13.378;2023-07-30T11:38:39;3.47;;;1.33;;
17380;SDS011;8808;52.478;13.378;2023-07-30T11:41:07;3.20;;;1.40;;
17380;SDS011;8808;52.478;13.378;2023-07-30T11:43:36;4.57;;;1.63;;
17380;SDS011;8808;52.478;13.378;2023-07-30T11:46:08;1.75;;;1.33;;
17380;SDS011;8808;52.478;13.378;2023-07-30T11:48:37;4.30;;;1.40;;
17380;SDS011;8808;52.478;13.378;2023-07-30T11:51:05;6.82;;;1.60;;
17380;SDS011;8808;52.478;13.378;2023-07-30T11:53:45;4.80;;;2.00;;
17380;SDS011;8808;52.478;13.378;2023-07-30T11:56:22;5.82;;;1.40;;
17380;SDS011;8808;52.478;13.378;2023-07-30T11:58:54;4.78;;;1.80;;
17380;SDS011;8808;52.478;13.378;2023-07-30T12:01:23;2.38;;;1.42;;
17380;SDS011;8808;52.478;13.378;2023-07-30T12:03:53;5.70;;;1.60;;
17380;SDS011;8808;52.478;13.378;2023-07-30T12:06:22;2.40;;;1.50;;
17380;SDS011;8808;52.478;13.378;2023-07-30T12:08:49;7.97;;;1.50;;
17380;SDS011;8808;52.478;13.378;2023-07-30T12:11:17;6.60;;;1.45;;
17380;SDS011;8808;52.478;13.378;2023-07-30T12:13:45;3.70;;;1.67;;
17380;SDS011;8808;52.478;13.378;2023-07-30T12:16:16;4.82;;;1.60;;
17380;SDS011;8808;52.478;13.378;2023-07-30T12:18:43;4.93;;;1.40;;
17380;SDS011;8808;52.478;13.378;2023-07-30T12:21:10;2.70;;;1.50;;
17380;SDS011;8808;52.478;13.378;2023-07-30T12:23:39;2.55;;;1.52;;
17380;SDS011;8808;52.478;13.378;2023-07-30T12:26:06;5.00;;;1.60;;
17380;SDS011;8808;52.478;13.378;2023-07-30T12:28:33;2.65;;;1.65;;
17380;SDS011;8808;52.478;13.378;2023-07-30T12:31:00;4.78;;;1.88;;
17380;SDS011;8808;52.478;13.378;2023-07-30T12:33:27;4.38;;;1.75;;
17380;SDS011;8808;52.478;13.378;2023-07-30T12:35:54;2.20;;;1.58;;
17380;SDS011;8808;52.478;13.378;2023-07-30T12:38:21;4.43;;;1.40;;
17380;SDS011;8808;52.478;13.378;2023-07-30T12:40:49;5.10;;;2.00;;
17380;SDS011;8808;52.478;13.378;2023-07-30T12:43:16;6.90;;;1.75;;
17380;SDS011;8808;52.478;13.378;2023-07-30T12:45:45;2.85;;;1.60;;
17380;SDS011;8808;52.478;13.378;2023-07-30T12:48:12;4.38;;;1.67;;
17380;SDS011;8808;52.478;13.378;2023-07-30T12:50:40;3.88;;;1.80;;
17380;SDS011;8808;52.478;13.378;2023-07-30T12:53:07;3.97;;;1.67;;
17380;SDS011;8808;52.478;13.378;2023-07-30T12:55:33;5.65;;;2.13;;
17380;SDS011;8808;52.478;13.378;2023-07-30T12:58:02;5.05;;;1.88;;
17380;SDS011;8808;52.478;13.378;2023-07-30T13:00:29;3.30;;;1.90;;
17380;SDS011;8808;52.478;13.378;2023-07-30T13:02:56;3.75;;;1.80;;
17380;SDS011;8808;52.478;13.378;2023-07-30T13:05:23;4.80;;;1.98;;
17380;SDS011;8808;52.478;13.378;2023-07-30T13:07:50;3.75;;;1.80;;
17380;SDS011;8808;52.478;13.378;2023-07-30T13:10:17;6.18;;;2.05;;
17380;SDS011;8808;52.478;13.378;2023-07-30T13:12:44;6.20;;;2.00;;
17380;SDS011;8808;52.478;13.378;2023-07-30T13:15:12;5.72;;;1.88;;
17380;SDS011;8808;52.478;13.378;2023-07-30T13:17:39;4.57;;;1.60;;
17380;SDS011;8808;52.478;13.378;2023-07-30T13:20:07;2.75;;;1.55;;
17380;SDS011;8808;52.478;13.378;2023-07-30T13:22:34;4.95;;;1.60;;
17380;SDS011;8808;52.478;13.378;2023-07-30T13:25:01;6.88;;;1.60;;
17380;SDS011;8808;52.478;13.378;2023-07-30T13:27:28;3.45;;;1.90;;
17380;SDS011;8808;52.478;13.378;2023-07-30T13:29:55;6.20;;;1.88;;
17380;SDS011;8808;52.478;13.378;2023-07-30T13:32:23;6.40;;;2.15;;
17380;SDS011;8808;52.478;13.378;2023-07-30T13:34:50;5.00;;;1.88;;
17380;SDS011;8808;52.478;13.378;2023-07-30T13:37:17;2.90;;;2.10;;
17380;SDS011;8808;52.478;13.378;2023-07-30T13:39:44;2.42;;;1.90;;
17380;SDS011;8808;52.478;13.378;2023-07-30T13:42:11;4.38;;;2.28;;
17380;SDS011;8808;52.478;13.378;2023-07-30T13:44:38;5.10;;;1.70;;
17380;SDS011;8808;52.478;13.378;2023-07-30T13:47:05;2.40;;;1.60;;
17380;SDS011;8808;52.478;13.378;2023-07-30T13:49:33;1.83;;;1.50;;
17380;SDS011;8808;52.478;13.378;2023-07-30T13:52:00;2.58;;;1.50;;
17380;SDS011;8808;52.478;13.378;2023-07-30T13:54:27;1.77;;;1.48;;
17380;SDS011;8808;52.478;13.378;2023-07-30T13:56:54;4.90;;;2.30;;
17380;SDS011;8808;52.478;13.378;2023-07-30T13:59:21;4.22;;;1.70;;
17380;SDS011;8808;52.478;13.378;2023-07-30T14:01:48;4.35;;;1.25;;
17380;SDS011;8808;52.478;13.378;2023-07-30T14:04:15;2.28;;;1.10;;
17380;SDS011;8808;52.478;13.378;2023-07-30T14:06:43;3.03;;;1.30;;
17380;SDS011;8808;52.478;13.378;2023-07-30T14:09:10;2.85;;;1.08;;
17380;SDS011;8808;52.478;13.378;2023-07-30T14:11:37;2.72;;;1.17;;
17380;SDS011;8808;52.478;13.378;2023-07-30T14:14:08;1.80;;;1.08;;
17380;SDS011;8808;52.478;13.378;2023-07-30T14:16:34;1.60;;;1.08;;
17380;SDS011;8808;52.478;13.378;2023-07-30T14:19:02;2.20;;;1.00;;
17380;SDS011;8808;52.478;13.378;2023-07-30T14:21:28;2.40;;;1.00;;
17380;SDS011;8808;52.478;13.378;2023-07-30T14:23:57;2.33;;;1.20;;
17380;SDS011;8808;52.478;13.378;2023-07-30T14:26:24;5.38;;;1.05;;
17380;SDS011;8808;52.478;13.378;2023-07-30T14:28:51;3.80;;;1.45;;
17380;SDS011;8808;52.478;13.378;2023-07-30T14:31:18;2.53;;;1.30;;
17380;SDS011;8808;52.478;13.378;2023-07-30T14:33:44;3.08;;;1.50;;
17380;SDS011;8808;52.478;13.378;2023-07-30T14:36:11;2.67;;;1.30;;
17380;SDS011;8808;52.478;13.378;2023-07-30T14:38:38;2.22;;;1.10;;
17380;SDS011;8808;52.478;13.378;2023-07-30T14:41:07;3.22;;;1.23;;
17380;SDS011;8808;52.478;13.378;2023-07-30T14:43:34;4.03;;;1.38;;
17380;SDS011;8808;52.478;13.378;2023-07-30T14:46:02;2.25;;;1.33;;
17380;SDS011;8808;52.478;13.378;2023-07-30T14:48:28;2.90;;;1.25;;